Pittsburg, NH

9:34 PM EST on December 17, 2014 (GMT -0500)
First Connecticut Lake | Change Station
CLOSE
Current Station
Personal Weather Station
Location: Pittsburg, NH
Elevation: 1854 ft
Nearby Weather Stations
Active Advisory: Winter Weather Advisory

Elev 1854 ft 45.11 °N, 71.29 °W | Updated 18 seconds ago

Snow
Snow
31.3 °F
Feels Like 31 °F
N
0.0
Wind Variable Wind from East
Gusts 0.0 mph

Today
High -- | Low -- °F
--% Chance of Precip.
Yesterday
High -- | Low -- °F
Precip. -- in
7:18 AM 4:04 PM
Waning Crescent, 18% visible
Pressure 29.67 in
Visibility 6.0 miles
Clouds Few 1200 ft
Scattered Clouds 2100 ft
Overcast 4500 ft
Windchill 31 °F
Dew Point 31 °F
Humidity 100%
Rainfall 0.64 in
Snow Depth Not available.
UV 0.0 out of 12
Pollen .10 out of 12
Air Quality Not available.
Flu Activity Not available.
SPECI KBML 180224Z AUTO 00000KT 6SM BR FEW012 SCT021 OVC045 01/M01 A2967 RMK AO2 RAE03 P0000 T00111006

More Conditions Fewer Conditions

Pressure 29.67 in
Visibility 6.0 miles
Clouds Few 1200 ft
Scattered Clouds 2100 ft
Overcast 4500 ft
Windchill 31 °F
Dew Point 31 °F
Humidity 100%
Rainfall 0.64 in
Snow Depth Not available.
UV 0.0 out of 12
Pollen .10 out of 12
Air Quality Not available.
Flu Activity Not available.
SPECI KBML 180224Z AUTO 00000KT 6SM BR FEW012 SCT021 OVC045 01/M01 A2967 RMK AO2 RAE03 P0000 T00111006

More Conditions Fewer Conditions

10-Day Weather Forecast

Almanac

Astronomy

Dec. 17, 2014 Rise Set
Actual Time
Civil Twilight
Nautical Twilight
Astronomical Twilight
Moon
Length of Visible Light
Length of Day
Tomorrow will be .
, % of the Moon is Illuminated

Today's Extremes

State Highs State Lows

Community

WunderPhotos

Upload Photos

1,778,862 photos uploaded!

WunderBlogs® & News

Nearby

Air Quality

  Air Quality AQ Index Pollutant
Not available.

Snow Depth

Station Depth Elevation

Earthquake Activity

City Distance Mag. Time & Date
Minimum magnitude displayed is 2.5.

Coastal Water Temperatures

Place Temperature

Nearby Weather Stations